Time;durP1;ratioP1;P1;durP2;ratioP2;P2;SDS_P1;SDS_P2;PMS_P1;PMS_P2;Temp;Humidity;BMP_temperature;BMP_pressure;BME280_temperature;BME280_humidity;BME280_pressure;Samples;Min_cycle;Max_cycle;Signal;HPM_P1;HPM_P2
2022/07/23 00:00:28;;;;;;;16.80;12.10;;;16.60;99.90;;;;;;5111979;28;20050;-52
2022/07/23 00:02:54;;;;;;;15.98;11.98;;;16.50;99.90;;;;;;5112775;28;20030;-54
2022/07/23 00:05:20;;;;;;;17.98;12.55;;;16.40;99.90;;;;;;5115687;28;20036;-55
2022/07/23 00:07:45;;;;;;;18.30;12.77;;;16.40;99.90;;;;;;5115713;28;20563;-54
2022/07/23 00:10:11;;;;;;;17.38;12.60;;;16.10;99.90;;;;;;5115268;28;20087;-53
2022/07/23 00:12:38;;;;;;;18.90;11.43;;;15.90;99.90;;;;;;5115290;28;20020;-56
2022/07/23 00:15:06;;;;;;;19.50;12.27;;;15.90;99.90;;;;;;5115216;28;20039;-54
2022/07/23 00:17:32;;;;;;;15.63;11.43;;;16.00;99.90;;;;;;5115482;28;20019;-54
2022/07/23 00:19:58;;;;;;;16.73;11.20;;;16.10;99.90;;;;;;5115125;28;20030;-54
2022/07/23 00:22:24;;;;;;;18.60;12.48;;;16.10;99.90;;;;;;5115158;28;20023;-54
2022/07/23 00:24:49;;;;;;;17.58;11.93;;;16.00;99.90;;;;;;5114997;28;20483;-54
2022/07/23 00:27:15;;;;;;;17.00;12.90;;;16.10;99.90;;;;;;5115205;28;20102;-52
2022/07/23 00:29:41;;;;;;;16.30;12.25;;;16.10;99.90;;;;;;5114966;28;20088;-53
2022/07/23 00:32:06;;;;;;;17.40;12.32;;;15.90;99.90;;;;;;5114946;28;20016;-53
2022/07/23 00:34:32;;;;;;;16.15;11.82;;;15.80;99.90;;;;;;5115078;28;20098;-55
2022/07/23 00:36:58;;;;;;;16.58;12.52;;;15.70;99.90;;;;;;5114730;28;20127;-53
2022/07/23 00:39:24;;;;;;;17.35;12.00;;;15.90;99.90;;;;;;5114402;28;20039;-55
2022/07/23 00:41:50;;;;;;;14.10;11.93;;;15.80;99.90;;;;;;5114848;28;20027;-54
2022/07/23 00:44:24;;;;;;;15.45;11.15;;;15.90;99.90;;;;;;5115181;28;20027;-53
2022/07/23 00:46:54;;;;;;;;;;;16.00;99.90;;;;;;5115179;28;20114;-54
2022/07/23 00:49:26;;;;;;;11.73;10.18;;;15.90;99.90;;;;;;5114588;28;19914;-51
2022/07/23 00:51:52;;;;;;;11.68;9.68;;;15.90;99.90;;;;;;5114540;28;20028;-53
2022/07/23 00:54:21;;;;;;;13.77;10.18;;;15.90;99.90;;;;;;5114169;28;20609;-53
2022/07/23 00:56:47;;;;;;;15.65;10.00;;;15.80;99.90;;;;;;5114800;28;20547;-50
2022/07/23 00:59:13;;;;;;;15.25;10.45;;;15.70;99.90;;;;;;5114955;28;20023;-53
2022/07/23 01:01:40;;;;;;;13.73;10.13;;;15.70;99.90;;;;;;5114125;28;20032;-50
2022/07/23 01:04:06;;;;;;;14.88;10.20;;;15.70;99.90;;;;;;5096349;28;20035;-50
2022/07/23 01:06:37;;;;;;;14.57;10.40;;;15.60;99.90;;;;;;5114403;28;20027;-54
2022/07/23 01:09:05;;;;;;;13.73;10.50;;;15.40;99.90;;;;;;5114053;28;20189;-52
2022/07/23 01:11:36;;;;;;;14.93;9.93;;;15.30;99.90;;;;;;5114318;28;20027;-53
2022/07/23 01:14:12;;;;;;;15.15;11.70;;;15.30;99.90;;;;;;5113928;28;20484;-53
2022/07/23 01:16:39;;;;;;;17.40;12.07;;;15.20;99.90;;;;;;5114162;28;20020;-53
2022/07/23 01:19:06;;;;;;;13.32;11.32;;;15.30;99.90;;;;;;5114486;28;20039;-54
2022/07/23 01:21:35;;;;;;;16.70;11.73;;;15.40;99.90;;;;;;5114022;28;20023;-53
2022/07/23 01:24:01;;;;;;;16.27;11.77;;;15.40;99.90;;;;;;5095377;28;20110;-53
2022/07/23 01:26:27;;;;;;;13.43;11.15;;;15.40;99.90;;;;;;5114541;28;20169;-51
2022/07/23 01:28:52;;;;;;;14.68;10.85;;;15.60;99.90;;;;;;5113942;28;20012;-52
2022/07/23 01:31:19;;;;;;;15.25;11.20;;;15.60;99.90;;;;;;5114126;28;20473;-53
2022/07/23 01:33:44;;;;;;;13.52;9.48;;;15.70;99.90;;;;;;5113802;28;20027;-53
2022/07/23 01:36:10;;;;;;;13.80;10.88;;;15.60;99.90;;;;;;5113611;28;20058;-50
2022/07/23 01:38:36;;;;;;;15.82;10.70;;;15.40;99.90;;;;;;5113793;28;20070;-52
2022/07/23 01:41:02;;;;;;;16.85;11.63;;;15.50;99.90;;;;;;5113762;28;20055;-52
2022/07/23 01:43:27;;;;;;;15.73;12.93;;;15.50;99.90;;;;;;5095466;28;20043;-53
2022/07/23 01:45:53;;;;;;;18.50;13.10;;;15.50;99.90;;;;;;5113676;28;20070;-54
2022/07/23 01:48:19;;;;;;;16.60;12.27;;;15.50;99.90;;;;;;5113597;28;20034;-52
2022/07/23 01:50:46;;;;;;;15.70;12.10;;;15.50;99.90;;;;;;5113608;28;20028;-50
2022/07/23 01:53:13;;;;;;;17.40;11.60;;;15.60;99.90;;;;;;5113972;28;20103;-53
2022/07/23 01:55:38;;;;;;;18.02;11.65;;;15.60;99.90;;;;;;5113383;28;20444;-53
2022/07/23 01:58:05;;;;;;;14.98;11.85;;;15.60;99.90;;;;;;5113716;28;20052;-52
2022/07/23 02:00:31;;;;;;;16.90;11.88;;;15.60;99.90;;;;;;5095085;28;20491;-54
2022/07/23 02:02:58;;;;;;;14.68;11.18;;;15.60;99.90;;;;;;5113115;28;20012;-53
2022/07/23 02:05:24;;;;;;;17.02;11.95;;;15.50;99.90;;;;;;5113387;28;20114;-54
2022/07/23 02:07:50;;;;;;;16.75;11.20;;;15.40;99.90;;;;;;5113243;28;20024;-51
2022/07/23 02:10:16;;;;;;;15.98;11.13;;;15.30;99.90;;;;;;5113207;28;20573;-54
2022/07/23 02:12:42;;;;;;;15.50;11.65;;;15.40;99.90;;;;;;5113268;28;20020;-54
2022/07/23 02:15:08;;;;;;;12.70;10.85;;;15.40;99.90;;;;;;5113443;28;20071;-53
2022/07/23 02:17:33;;;;;;;16.33;12.13;;;15.50;99.90;;;;;;5112714;28;20365;-53
2022/07/23 02:19:59;;;;;;;14.38;10.98;;;15.40;99.90;;;;;;5112655;28;20032;-54
2022/07/23 02:22:25;;;;;;;14.77;11.52;;;15.40;99.90;;;;;;5113013;28;20027;-54
2022/07/23 02:24:50;;;;;;;13.30;10.38;;;15.30;99.90;;;;;;5113222;28;20027;-54
2022/07/23 02:27:16;;;;;;;14.30;10.40;;;15.30;99.90;;;;;;5093870;28;20020;-50
2022/07/23 02:29:42;;;;;;;14.68;10.45;;;15.30;99.90;;;;;;5112858;28;20036;-54
2022/07/23 02:32:07;;;;;;;16.17;10.32;;;15.30;99.90;;;;;;5112500;28;20027;-53
2022/07/23 02:34:33;;;;;;;12.77;9.90;;;15.40;99.90;;;;;;5112567;28;20028;-54
2022/07/23 02:36:59;;;;;;;12.75;9.82;;;15.40;99.90;;;;;;5112595;28;20506;-53
2022/07/23 02:39:25;;;;;;;13.63;10.05;;;15.40;99.90;;;;;;5112976;28;20024;-50
2022/07/23 02:41:50;;;;;;;13.60;9.65;;;15.50;99.90;;;;;;5112648;28;20364;-53
2022/07/23 02:44:16;;;;;;;12.48;8.90;;;15.50;99.90;;;;;;5112524;28;20092;-53
2022/07/23 02:46:42;;;;;;;11.73;8.65;;;15.50;99.90;;;;;;5112930;28;20031;-54
2022/07/23 02:49:08;;;;;;;11.13;8.40;;;15.60;99.90;;;;;;5112459;28;20444;-54
2022/07/23 02:51:33;;;;;;;10.80;7.65;;;15.60;99.90;;;;;;5112836;28;20035;-53
2022/07/23 02:53:59;;;;;;;11.23;8.00;;;15.70;99.90;;;;;;5112574;28;20523;-53
2022/07/23 02:56:25;;;;;;;11.98;8.07;;;15.70;99.90;;;;;;5112565;28;20054;-54
2022/07/23 02:58:51;;;;;;;12.93;8.50;;;15.70;99.90;;;;;;5112391;28;20024;-53
2022/07/23 03:01:16;;;;;;;11.13;8.30;;;15.70;99.90;;;;;;5112467;28;20028;-54
2022/07/23 03:03:42;;;;;;;12.38;7.32;;;15.70;99.90;;;;;;5112353;28;20024;-52
2022/07/23 03:06:08;;;;;;;9.75;6.97;;;15.70;99.90;;;;;;5112318;28;20229;-53
2022/07/23 03:08:33;;;;;;;11.80;7.20;;;15.70;99.90;;;;;;5112432;28;20472;-53
2022/07/23 03:10:59;;;;;;;10.63;7.15;;;15.70;99.90;;;;;;5094306;28;20020;-52
2022/07/23 03:13:25;;;;;;;12.90;7.82;;;15.70;99.90;;;;;;5112617;28;20024;-55
2022/07/23 03:15:51;;;;;;;13.88;7.82;;;15.70;99.90;;;;;;5112324;28;20028;-52
2022/07/23 03:18:17;;;;;;;10.60;7.30;;;15.80;99.90;;;;;;5111820;28;20073;-52
2022/07/23 03:20:42;;;;;;;11.13;7.55;;;15.80;99.90;;;;;;5112355;28;20084;-54
2022/07/23 03:23:08;;;;;;;10.98;7.22;;;15.80;99.90;;;;;;5112300;28;20825;-51
2022/07/23 03:25:34;;;;;;;11.45;7.32;;;15.70;99.90;;;;;;5112460;28;20044;-52
2022/07/23 03:27:59;;;;;;;8.88;6.90;;;15.80;99.90;;;;;;5112173;28;20092;-52
2022/07/23 03:30:25;;;;;;;10.25;7.65;;;15.70;99.90;;;;;;5112045;28;20028;-49
2022/07/23 03:32:51;;;;;;;9.27;7.05;;;15.80;99.90;;;;;;5112152;28;20020;-54
2022/07/23 03:35:16;;;;;;;12.82;7.50;;;15.80;99.90;;;;;;5093888;28;20032;-51
2022/07/23 03:37:42;;;;;;;13.43;7.80;;;15.70;99.90;;;;;;5112496;28;20504;-52
2022/07/23 03:40:08;;;;;;;11.40;7.43;;;15.70;99.90;;;;;;5116240;28;20030;-50
2022/07/23 03:42:34;;;;;;;13.73;7.40;;;15.60;99.90;;;;;;5116551;28;20047;-53
2022/07/23 03:45:00;;;;;;;9.95;7.75;;;15.70;99.90;;;;;;5115337;28;20522;-55
2022/07/23 03:47:26;;;;;;;10.02;7.35;;;15.60;99.90;;;;;;5115843;28;20020;-54
2022/07/23 03:49:51;;;;;;;11.88;6.95;;;15.60;99.90;;;;;;5116078;28;20028;-52
2022/07/23 03:52:17;;;;;;;11.07;7.32;;;15.60;99.90;;;;;;5116185;28;20034;-50
2022/07/23 03:54:43;;;;;;;8.48;6.97;;;15.50;99.90;;;;;;5115900;28;20129;-55
2022/07/23 03:57:08;;;;;;;12.02;7.45;;;15.40;99.90;;;;;;5115952;28;20051;-51
2022/07/23 03:59:34;;;;;;;10.48;6.80;;;15.40;99.90;;;;;;5116072;28;20106;-54
2022/07/23 04:02:00;;;;;;;9.60;6.40;;;15.40;99.90;;;;;;5115440;28;20031;-50
2022/07/23 04:04:25;;;;;;;8.50;6.22;;;15.40;99.90;;;;;;5115502;28;20039;-52
2022/07/23 04:06:51;;;;;;;8.73;6.10;;;15.40;99.90;;;;;;5115242;28;20040;-51
2022/07/23 04:09:17;;;;;;;9.55;6.55;;;15.30;99.90;;;;;;5097746;28;20058;-54
2022/07/23 04:11:42;;;;;;;10.82;6.70;;;15.30;99.90;;;;;;5115544;28;20050;-50
2022/07/23 04:14:08;;;;;;;13.65;6.80;;;15.30;99.90;;;;;;5115409;28;20024;-49
2022/07/23 04:16:34;;;;;;;9.30;6.50;;;15.10;99.90;;;;;;5114997;28;20031;-53
2022/07/23 04:18:59;;;;;;;9.23;6.78;;;15.20;99.90;;;;;;5115767;28;20028;-52
2022/07/23 04:21:25;;;;;;;10.32;6.38;;;15.30;99.90;;;;;;5115414;28;20379;-54
2022/07/23 04:23:51;;;;;;;9.70;6.20;;;15.30;99.90;;;;;;5097249;28;20016;-51
2022/07/23 04:26:16;;;;;;;7.72;6.05;;;15.20;99.90;;;;;;5115211;28;20035;-52
2022/07/23 04:28:42;;;;;;;10.00;6.90;;;15.20;99.90;;;;;;5115662;28;20024;-52
2022/07/23 04:31:08;;;;;;;8.55;5.72;;;15.30;99.90;;;;;;5114974;28;20028;-52
2022/07/23 04:33:34;;;;;;;7.32;5.22;;;15.10;99.90;;;;;;5115305;28;20031;-54
2022/07/23 04:36:00;;;;;;;9.88;6.03;;;15.20;99.90;;;;;;5114933;28;20039;-53
2022/07/23 04:38:25;;;;;;;11.50;5.38;;;15.20;99.90;;;;;;5114939;28;20065;-53
2022/07/23 04:40:51;;;;;;;10.32;5.95;;;15.30;99.90;;;;;;5115274;28;20506;-53
2022/07/23 04:43:17;;;;;;;11.45;6.00;;;15.20;99.90;;;;;;5114864;28;20361;-54
2022/07/23 04:45:42;;;;;;;10.77;5.80;;;15.20;99.90;;;;;;5114388;28;20042;-55
2022/07/23 04:48:08;;;;;;;10.48;5.80;;;15.30;99.90;;;;;;5115014;28;20495;-53
2022/07/23 04:50:34;;;;;;;8.65;5.80;;;15.30;99.90;;;;;;5113716;28;20034;-53
2022/07/23 04:52:59;;;;;;;10.82;5.68;;;15.30;99.90;;;;;;5096936;28;20487;-53
2022/07/23 04:55:25;;;;;;;11.10;6.22;;;15.40;99.90;;;;;;5114516;28;20032;-53
2022/07/23 04:57:51;;;;;;;10.93;6.50;;;15.30;99.90;;;;;;5114790;28;20024;-54
2022/07/23 05:00:16;;;;;;;9.75;5.78;;;15.40;99.90;;;;;;5114335;28;20449;-54
2022/07/23 05:02:42;;;;;;;10.02;5.68;;;15.30;99.90;;;;;;5096416;28;20024;-53
2022/07/23 05:05:08;;;;;;;11.05;6.00;;;15.40;99.90;;;;;;5114333;28;20039;-50
2022/07/23 05:07:34;;;;;;;11.75;6.18;;;15.40;99.90;;;;;;5114371;28;20024;-51
2022/07/23 05:09:59;;;;;;;9.20;5.88;;;15.50;99.90;;;;;;5114483;28;20084;-52
2022/07/23 05:12:25;;;;;;;9.43;5.85;;;15.60;99.90;;;;;;5114408;28;20034;-53
2022/07/23 05:14:52;;;;;;;13.48;6.28;;;15.60;99.90;;;;;;5114311;28;20019;-53
2022/07/23 05:17:18;;;;;;;8.90;5.60;;;15.50;99.90;;;;;;5113857;28;20403;-53
2022/07/23 05:19:44;;;;;;;11.65;5.70;;;15.60;99.90;;;;;;5114616;28;20020;-52
2022/07/23 05:22:09;;;;;;;11.73;5.75;;;15.70;99.90;;;;;;5114223;28;20039;-53
2022/07/23 05:24:37;;;;;;;9.50;5.40;;;15.80;99.90;;;;;;5114261;28;20020;-52
2022/07/23 05:27:03;;;;;;;7.38;5.60;;;15.80;99.90;;;;;;5114035;28;20051;-54
2022/07/23 05:29:28;;;;;;;10.07;5.30;;;15.90;99.90;;;;;;5113640;28;20092;-50
2022/07/23 05:31:54;;;;;;;8.38;5.25;;;15.90;99.90;;;;;;5114034;28;20026;-53
2022/07/23 05:34:20;;;;;;;7.07;5.32;;;16.10;99.90;;;;;;5113783;28;20395;-53
2022/07/23 05:36:45;;;;;;;8.38;4.80;;;16.10;99.90;;;;;;5113700;28;20101;-53
2022/07/23 05:39:11;;;;;;;8.23;5.10;;;16.20;99.90;;;;;;5113679;28;20365;-53
2022/07/23 05:41:37;;;;;;;9.98;5.30;;;16.30;99.90;;;;;;5114084;28;20088;-54
2022/07/23 05:44:03;;;;;;;8.90;5.28;;;16.40;99.90;;;;;;5113246;28;20103;-55
2022/07/23 05:46:28;;;;;;;12.05;5.50;;;16.50;99.90;;;;;;5113747;28;20042;-54
2022/07/23 05:48:54;;;;;;;8.32;4.65;;;16.60;99.90;;;;;;5113694;28;20027;-52
2022/07/23 05:51:23;;;;;;;11.27;5.38;;;16.60;99.90;;;;;;5113695;28;20034;-54
2022/07/23 05:53:50;;;;;;;11.73;5.63;;;16.80;99.90;;;;;;5113253;28;20016;-53
2022/07/23 05:56:17;;;;;;;8.38;5.40;;;16.80;99.90;;;;;;5113547;28;20081;-54
2022/07/23 05:58:42;;;;;;;9.07;5.25;;;16.90;99.90;;;;;;5113146;28;20030;-54
2022/07/23 06:01:08;;;;;;;9.98;5.75;;;16.90;99.90;;;;;;5113330;28;20028;-55
2022/07/23 06:03:34;;;;;;;7.38;5.75;;;17.10;99.90;;;;;;5094918;28;20026;-53
2022/07/23 06:06:00;;;;;;;8.55;5.57;;;17.20;99.90;;;;;;5113085;28;20028;-50
2022/07/23 06:08:26;;;;;;;8.30;5.00;;;17.40;99.90;;;;;;5113588;28;20052;-54
2022/07/23 06:10:51;;;;;;;11.85;4.95;;;17.50;99.90;;;;;;5094931;28;20389;-53
2022/07/23 06:13:21;;;;;;;12.40;5.43;;;17.60;99.90;;;;;;5112888;28;20034;-55
2022/07/23 06:15:47;;;;;;;9.80;4.95;;;17.70;99.90;;;;;;5113131;28;20110;-55
2022/07/23 06:18:12;;;;;;;9.40;5.05;;;17.80;99.90;;;;;;5113443;28;20153;-53
2022/07/23 06:20:38;;;;;;;9.80;4.82;;;18.00;99.90;;;;;;5113084;28;20489;-53
2022/07/23 06:23:04;;;;;;;9.63;5.20;;;18.00;99.90;;;;;;5112952;28;20034;-54
2022/07/23 06:25:30;;;;;;;10.80;5.20;;;18.30;99.90;;;;;;5113112;28;20388;-54
2022/07/23 06:27:55;;;;;;;10.32;4.85;;;18.80;99.90;;;;;;5112608;28;20050;-53
2022/07/23 06:30:21;;;;;;;7.97;4.63;;;19.90;99.90;;;;;;5112814;28;20028;-53
2022/07/23 06:32:47;;;;;;;9.25;4.30;;;20.20;99.90;;;;;;5112774;28;20034;-54
2022/07/23 06:35:13;;;;;;;8.82;4.70;;;20.30;99.90;;;;;;5113196;28;20016;-52
2022/07/23 06:37:39;;;;;;;7.47;4.78;;;20.10;99.90;;;;;;5112069;28;20075;-53
2022/07/23 06:40:05;;;;;;;9.20;4.40;;;20.10;99.90;;;;;;5112705;28;20043;-54
2022/07/23 06:42:31;;;;;;;7.07;4.05;;;20.30;99.90;;;;;;5112443;28;20138;-56
2022/07/23 06:44:57;;;;;;;8.30;4.68;;;20.80;99.90;;;;;;5112608;28;20107;-54
2022/07/23 06:47:23;;;;;;;9.65;4.90;;;21.30;99.90;;;;;;5113087;28;20046;-54
2022/07/23 06:49:48;;;;;;;8.68;4.45;;;21.50;99.90;;;;;;5112735;28;20072;-55
2022/07/23 06:52:14;;;;;;;6.45;4.05;;;21.40;99.90;;;;;;5112185;28;20023;-56
2022/07/23 06:54:40;;;;;;;9.13;4.43;;;22.60;99.90;;;;;;5112502;28;20019;-55
2022/07/23 06:57:05;;;;;;;5.97;4.15;;;22.60;99.90;;;;;;5112330;28;20031;-55
2022/07/23 06:59:31;;;;;;;7.30;4.10;;;22.50;99.90;;;;;;5112288;28;20024;-55
2022/07/23 07:01:58;;;;;;;6.85;4.05;;;22.50;99.90;;;;;;5112363;28;20088;-54
2022/07/23 07:04:23;;;;;;;8.90;4.47;;;22.50;99.90;;;;;;5112296;28;20381;-54
2022/07/23 07:06:49;;;;;;;8.75;4.47;;;22.80;99.90;;;;;;5112320;28;20034;-55
2022/07/23 07:09:15;;;;;;;10.85;4.80;;;23.00;99.90;;;;;;5112601;28;20483;-54
2022/07/23 07:11:40;;;;;;;11.35;4.80;;;22.80;99.90;;;;;;5112000;28;20023;-54
2022/07/23 07:14:06;;;;;;;10.43;4.35;;;24.20;99.90;;;;;;5118369;28;20106;-55
2022/07/23 07:16:32;;;;;;;7.53;4.18;;;23.90;99.90;;;;;;5119083;28;20035;-55
2022/07/23 07:18:58;;;;;;;10.20;4.00;;;23.90;99.90;;;;;;5119291;28;20387;-56
2022/07/23 07:21:23;;;;;;;9.13;4.25;;;24.70;99.90;;;;;;5118816;28;20055;-55
2022/07/23 07:23:49;;;;;;;8.90;4.35;;;24.80;99.90;;;;;;5118757;28;20034;-55
2022/07/23 07:26:15;;;;;;;9.75;3.90;;;25.30;99.90;;;;;;5118951;28;20024;-55
2022/07/23 07:28:40;;;;;;;8.65;3.67;;;25.00;99.90;;;;;;5119017;28;20027;-55
2022/07/23 07:31:06;;;;;;;10.52;4.03;;;25.20;99.90;;;;;;5118706;28;20034;-55
2022/07/23 07:33:32;;;;;;;10.57;3.63;;;24.60;99.90;;;;;;5118775;28;20030;-56
2022/07/23 07:35:58;;;;;;;7.70;3.58;;;24.70;99.90;;;;;;5118645;28;20101;-55
2022/07/23 07:38:24;;;;;;;10.45;3.40;;;24.80;99.90;;;;;;5118682;28;20073;-55
2022/07/23 07:40:50;;;;;;;8.98;3.00;;;25.10;99.90;;;;;;5118461;28;20062;-55
2022/07/23 07:43:15;;;;;;;9.57;3.17;;;25.40;99.90;;;;;;5100563;28;20022;-56
2022/07/23 07:45:41;;;;;;;9.70;3.40;;;25.60;99.90;;;;;;5118966;28;20031;-55
2022/07/23 07:48:07;;;;;;;7.55;3.20;;;25.50;99.90;;;;;;5118649;28;20028;-54
2022/07/23 07:50:32;;;;;;;11.48;3.50;;;25.70;99.90;;;;;;5118661;28;20023;-55
2022/07/23 07:52:58;;;;;;;10.20;3.38;;;25.80;99.90;;;;;;5118556;28;20528;-55
2022/07/23 07:55:24;;;;;;;6.75;2.90;;;25.80;99.90;;;;;;5118324;28;20073;-55
2022/07/23 07:57:50;;;;;;;8.00;3.20;;;25.80;99.90;;;;;;5118595;28;20089;-54
2022/07/23 08:00:16;;;;;;;7.97;3.20;;;25.90;99.90;;;;;;5118833;28;20054;-55
2022/07/23 08:02:44;;;;;;;8.15;3.53;;;26.00;99.90;;;;;;5118531;28;20016;-56
2022/07/23 08:05:11;;;;;;;7.90;3.97;;;26.20;99.90;;;;;;5118345;28;20372;-55
2022/07/23 08:07:38;;;;;;;6.60;3.67;;;26.20;99.90;;;;;;5118542;28;20031;-52
2022/07/23 08:10:05;;;;;;;9.55;4.18;;;26.20;99.90;;;;;;5118496;28;20031;-56
2022/07/23 08:12:52;;;;;;;7.78;3.88;;;25.80;99.90;;;;;;5118511;28;20557;-54
2022/07/23 08:15:19;;;;;;;7.70;3.90;;;25.80;99.90;;;;;;5118490;28;20064;-53
2022/07/23 08:17:46;;;;;;;10.07;3.92;;;25.90;99.90;;;;;;5118532;28;20028;-56
2022/07/23 08:20:13;;;;;;;7.53;3.95;;;26.00;99.90;;;;;;5118507;28;20023;-54
2022/07/23 08:23:07;;;;;;;9.60;4.10;;;26.10;99.90;;;;;;5118276;28;20507;-56
2022/07/23 08:25:36;;;;;;;9.48;4.47;;;26.30;99.90;;;;;;5115668;28;20070;-54
2022/07/23 08:28:05;;;;;;;9.55;4.72;;;26.20;99.90;;;;;;5115268;28;20059;-55
2022/07/23 08:30:32;;;;;;;8.88;3.97;;;26.50;99.90;;;;;;5115373;28;20099;-56
2022/07/23 08:33:00;;;;;;;11.63;4.50;;;26.60;99.90;;;;;;5115135;28;20024;-53
2022/07/23 08:35:33;;;;;;;7.57;4.18;;;27.20;99.90;;;;;;5115329;28;20499;-55
2022/07/23 08:38:00;;;;;;;6.30;3.78;;;27.20;99.90;;;;;;5114529;28;20491;-56
2022/07/23 08:40:30;;;;;;;7.28;4.10;;;28.10;99.90;;;;;;5114903;28;20032;-55
2022/07/23 08:42:56;;;;;;;9.18;4.25;;;28.20;99.90;;;;;;5114815;28;20027;-55
2022/07/23 08:45:23;;;;;;;8.00;4.30;;;28.20;99.90;;;;;;5115137;28;20414;-56
2022/07/23 08:47:51;;;;;;;6.60;4.05;;;29.20;99.70;;;;;;5114664;28;20019;-55
2022/07/23 08:50:16;;;;;;;10.82;3.92;;;30.80;98.40;;;;;;5114709;28;20526;-56
2022/07/23 08:52:42;;;;;;;7.20;4.28;;;32.10;95.10;;;;;;5114373;28;20031;-56
2022/07/23 08:55:09;;;;;;;7.50;3.67;;;31.20;96.40;;;;;;5114581;28;20032;-55
2022/07/23 08:57:35;;;;;;;5.85;3.83;;;30.50;96.50;;;;;;5114462;28;20369;-55
2022/07/23 09:00:01;;;;;;;6.03;3.90;;;30.30;95.80;;;;;;5114982;28;20031;-56
2022/07/23 09:02:26;;;;;;;8.05;3.70;;;31.00;95.30;;;;;;5114280;28;20028;-56
2022/07/23 09:04:52;;;;;;;5.72;3.45;;;32.10;94.60;;;;;;5114250;28;20035;-56
2022/07/23 09:07:18;;;;;;;7.40;3.70;;;32.90;93.60;;;;;;5114315;28;20020;-55
2022/07/23 09:09:44;;;;;;;7.13;3.97;;;33.40;93.20;;;;;;5114252;28;20085;-57
2022/07/23 09:12:11;;;;;;;7.05;4.10;;;33.30;90.50;;;;;;5114359;28;20024;-56
2022/07/23 09:14:48;;;;;;;9.77;3.92;;;33.60;91.00;;;;;;5114309;28;20024;-55
2022/07/23 09:17:17;;;;;;;8.55;4.28;;;34.30;90.10;;;;;;5114566;28;20098;-56
2022/07/23 09:19:45;;;;;;;7.28;4.10;;;34.60;90.00;;;;;;5114039;28;20111;-56
2022/07/23 09:22:27;;;;;;;6.00;3.67;;;35.60;88.30;;;;;;5113713;28;20019;-56
2022/07/23 09:25:11;;;;;;;5.32;3.70;;;37.60;79.00;;;;;;5113860;28;20027;-56
2022/07/23 09:28:02;;;;;;;6.65;3.70;;;37.50;81.00;;;;;;5114187;28;20036;-56
2022/07/23 09:30:30;;;;;;;6.60;4.18;;;37.70;80.40;;;;;;5114029;28;20034;-57
2022/07/23 09:33:15;;;;;;;6.57;3.85;;;35.50;77.50;;;;;;5114327;28;20015;-57
2022/07/23 09:35:49;;;;;;;6.35;4.22;;;34.70;81.30;;;;;;5112956;28;20028;-56
2022/07/23 09:38:16;;;;;;;6.30;4.07;;;34.70;81.00;;;;;;5113741;28;20032;-56
2022/07/23 09:40:43;;;;;;;7.15;4.40;;;34.00;82.00;;;;;;5114223;28;20110;-56
2022/07/23 09:43:08;;;;;;;10.07;4.03;;;34.10;82.60;;;;;;5113726;28;20110;-57
2022/07/23 09:45:35;;;;;;;6.38;3.88;;;33.30;81.50;;;;;;5113706;28;20074;-56
2022/07/23 09:48:17;;;;;;;7.72;3.55;;;32.00;82.60;;;;;;5114135;28;20554;-56
2022/07/23 09:50:44;;;;;;;8.32;4.30;;;31.40;86.10;;;;;;5113494;28;20035;-56
2022/07/23 09:53:23;;;;;;;8.10;3.90;;;30.90;84.90;;;;;;5113705;28;20399;-55
2022/07/23 09:55:49;;;;;;;5.43;3.97;;;30.40;88.10;;;;;;5113844;28;20073;-55
2022/07/23 09:58:16;;;;;;;6.70;3.75;;;31.30;86.80;;;;;;5113594;28;20098;-56
2022/07/23 10:00:44;;;;;;;5.65;3.50;;;34.30;81.70;;;;;;5113310;28;20062;-56
2022/07/23 10:03:12;;;;;;;7.38;4.00;;;36.30;80.00;;;;;;5113506;28;20065;-56
2022/07/23 10:05:40;;;;;;;6.95;3.42;;;38.20;76.00;;;;;;5113365;28;20063;-55
2022/07/23 10:08:11;;;;;;;8.98;4.05;;;39.40;73.20;;;;;;5113451;28;20039;-56
2022/07/23 10:10:40;;;;;;;6.28;3.65;;;36.80;74.20;;;;;;5113366;28;20040;-55
2022/07/23 10:15:51;;;;;;;7.90;3.80;;;33.50;77.80;;;;;;5113249;28;20392;-56
2022/07/23 10:18:17;;;;;;;7.18;3.55;;;33.20;79.30;;;;;;5113280;28;20020;-56
2022/07/23 10:20:43;;;;;;;6.97;3.22;;;34.50;76.90;;;;;;5113397;28;20098;-56
2022/07/23 10:23:33;;;;;;;6.90;3.65;;;35.30;79.20;;;;;;5113040;28;20027;-56
2022/07/23 10:26:11;;;;;;;7.53;3.40;;;35.90;77.30;;;;;;5113202;28;20063;-56
2022/07/23 10:28:48;;;;;;;7.28;3.97;;;35.20;75.40;;;;;;5113239;28;20063;-56
2022/07/23 10:31:49;;;;;;;6.80;4.03;;;35.30;78.30;;;;;;5113234;28;20024;-57
2022/07/23 10:34:22;;;;;;;3.90;3.20;;;34.30;76.70;;;;;;5029929;28;20033;-56
2022/07/23 10:36:49;;;;;;;6.60;4.00;;;34.70;77.30;;;;;;5013704;28;20465;-56
2022/07/23 10:39:22;;;;;;;10.15;4.03;;;34.60;73.90;;;;;;5030510;28;20540;-56
2022/07/23 10:41:47;;;;;;;6.45;4.20;;;32.90;76.90;;;;;;5030643;28;20571;-56
2022/07/23 10:44:25;;;;;;;6.53;3.83;;;31.80;80.40;;;;;;5030002;28;20020;-54
2022/07/23 10:49:43;;;;;;;6.03;3.70;;;34.40;76.80;;;;;;5030084;28;20034;-56
2022/07/23 10:52:15;;;;;;;7.82;3.90;;;33.40;75.90;;;;;;5030163;28;20534;-55
2022/07/23 10:54:42;;;;;;;5.30;3.40;;;33.80;76.20;;;;;;5029882;28;20109;-56
2022/07/23 10:57:08;;;;;;;5.53;3.40;;;34.20;76.60;;;;;;5030069;28;20025;-55
2022/07/23 11:00:13;;;;;;;5.65;3.40;;;35.40;74.40;;;;;;5029943;28;20036;-55
2022/07/23 11:02:45;;;;;;;4.90;3.13;;;36.00;75.80;;;;;;4970823;28;20199;-56
2022/07/23 11:05:17;;;;;;;6.20;3.70;;;36.10;74.20;;;;;;4971055;28;20042;-56
2022/07/23 11:08:04;;;;;;;5.78;3.30;;;36.10;73.10;;;;;;4982299;28;20099;-55
2022/07/23 11:10:42;;;;;;;4.65;3.40;;;35.50;75.10;;;;;;5010707;28;20113;-55
2022/07/23 11:13:39;;;;;;;6.70;3.83;;;36.80;73.80;;;;;;5009608;28;20478;-56
2022/07/23 11:16:11;;;;;;;5.85;3.67;;;37.20;74.50;;;;;;5002072;28;20042;-56
2022/07/23 11:18:39;;;;;;;4.10;3.60;;;36.60;71.90;;;;;;5009809;28;20030;-56
2022/07/23 11:21:27;;;;;;;6.78;3.78;;;36.40;72.30;;;;;;5010350;28;20418;-55
2022/07/23 11:24:06;;;;;;;8.02;3.92;;;34.50;74.30;;;;;;5009879;28;20061;-56
2022/07/23 11:26:41;;;;;;;5.47;3.47;;;33.50;75.10;;;;;;5009844;28;20052;-55
2022/07/23 11:29:27;;;;;;;8.27;3.80;;;33.40;75.00;;;;;;5009960;28;20030;-56
2022/07/23 11:32:05;;;;;;;9.32;4.00;;;33.60;75.20;;;;;;5009558;28;20142;-55
2022/07/23 11:34:31;;;;;;;5.13;3.75;;;33.40;73.80;;;;;;5108479;28;20035;-55
2022/07/23 11:36:57;;;;;;;5.80;3.90;;;33.10;75.40;;;;;;5112016;28;20040;-55
2022/07/23 11:39:26;;;;;;;5.72;3.92;;;33.60;75.40;;;;;;5112121;28;20032;-55
2022/07/23 11:41:52;;;;;;;5.60;3.67;;;32.80;76.30;;;;;;5112035;28;20024;-55
2022/07/23 11:44:48;;;;;;;5.13;3.85;;;34.10;75.00;;;;;;5112004;28;20032;-55
2022/07/23 11:47:13;;;;;;;7.50;3.75;;;33.70;76.40;;;;;;5029073;28;20121;-56
2022/07/23 11:49:51;;;;;;;6.90;3.75;;;33.30;74.80;;;;;;5029484;28;20041;-57
2022/07/23 11:52:18;;;;;;;5.35;3.80;;;33.40;74.20;;;;;;5029486;28;20040;-55
2022/07/23 11:54:54;;;;;;;5.40;3.63;;;32.40;75.50;;;;;;5029344;28;20025;-56
2022/07/23 11:57:24;;;;;;;4.82;3.63;;;32.80;76.80;;;;;;5029383;28;20044;-56
2022/07/23 11:59:53;;;;;;;7.45;3.95;;;32.20;77.50;;;;;;5031911;28;20076;-56
2022/07/23 12:02:20;;;;;;;5.88;3.80;;;31.80;75.90;;;;;;5033278;28;20025;-57
2022/07/23 12:04:49;;;;;;;8.07;3.58;;;31.20;77.30;;;;;;5032970;28;20456;-55
2022/07/23 12:07:33;;;;;;;5.60;3.90;;;31.20;76.80;;;;;;5033109;28;20036;-55
2022/07/23 12:10:04;;;;;;;6.70;3.85;;;31.20;78.20;;;;;;5033202;28;20080;-54
2022/07/23 12:13:25;;;;;;;6.20;3.65;;;32.20;75.80;;;;;;5032990;28;20205;-56
2022/07/23 12:15:53;;;;;;;6.25;3.70;;;31.80;75.70;;;;;;5006715;28;20514;-55
2022/07/23 12:18:24;;;;;;;6.55;3.85;;;31.20;76.70;;;;;;5032815;28;20648;-54
2022/07/23 12:20:56;;;;;;;6.40;4.07;;;31.20;77.80;;;;;;5032797;28;20029;-55
2022/07/23 12:23:24;;;;;;;4.95;3.63;;;31.80;78.10;;;;;;5066004;28;20031;-55
2022/07/23 12:25:51;;;;;;;6.85;3.85;;;32.30;76.00;;;;;;5115692;28;20034;-56
2022/07/23 12:28:29;;;;;;;6.82;3.80;;;32.90;75.50;;;;;;5115701;28;20024;-56
2022/07/23 12:30:57;;;;;;;7.03;3.80;;;32.70;75.30;;;;;;5115222;28;20024;-56
2022/07/23 12:33:30;;;;;;;6.60;3.63;;;32.20;76.30;;;;;;5115455;28;20097;-55
2022/07/23 12:35:58;;;;;;;7.65;4.00;;;33.00;78.40;;;;;;5115588;28;20047;-56
2022/07/23 12:38:26;;;;;;;5.88;4.18;;;32.70;75.80;;;;;;5115206;28;20114;-56
2022/07/23 12:40:53;;;;;;;6.00;3.53;;;32.30;76.20;;;;;;5115055;28;20477;-56
2022/07/23 12:43:36;;;;;;;4.85;3.53;;;32.40;78.30;;;;;;5114842;28;20107;-56
2022/07/23 12:46:10;;;;;;;6.45;3.78;;;33.00;77.70;;;;;;5115054;28;20035;-56
2022/07/23 12:48:38;;;;;;;5.85;3.50;;;32.70;74.50;;;;;;5115091;28;20035;-55
2022/07/23 12:51:17;;;;;;;7.82;3.90;;;33.50;76.10;;;;;;5114935;28;20035;-56